sensor_id;sensor_type;location;lat;lon;timestamp;P1;durP1;ratioP1;P2;durP2;ratioP2
735;SDS011;352;48.626;9.238;2023-02-23T00:01:09;12.00;;;10.70;;
735;SDS011;352;48.626;9.238;2023-02-23T00:03:38;14.97;;;9.40;;
735;SDS011;352;48.626;9.238;2023-02-23T00:06:05;11.73;;;9.73;;
735;SDS011;352;48.626;9.238;2023-02-23T00:08:32;12.05;;;9.60;;
735;SDS011;352;48.626;9.238;2023-02-23T00:11:00;10.55;;;9.45;;
735;SDS011;352;48.626;9.238;2023-02-23T00:13:27;12.73;;;9.48;;
735;SDS011;352;48.626;9.238;2023-02-23T00:15:55;10.73;;;8.65;;
735;SDS011;352;48.626;9.238;2023-02-23T00:18:22;10.65;;;9.60;;
735;SDS011;352;48.626;9.238;2023-02-23T00:20:53;11.38;;;10.15;;
735;SDS011;352;48.626;9.238;2023-02-23T00:23:21;11.45;;;10.13;;
735;SDS011;352;48.626;9.238;2023-02-23T00:25:51;11.52;;;9.35;;
735;SDS011;352;48.626;9.238;2023-02-23T00:28:18;12.77;;;9.75;;
735;SDS011;352;48.626;9.238;2023-02-23T00:30:45;9.90;;;9.00;;
735;SDS011;352;48.626;9.238;2023-02-23T00:33:13;11.40;;;9.23;;
735;SDS011;352;48.626;9.238;2023-02-23T00:35:39;12.15;;;9.55;;
735;SDS011;352;48.626;9.238;2023-02-23T00:38:06;13.10;;;9.60;;
735;SDS011;352;48.626;9.238;2023-02-23T00:40:33;12.77;;;9.82;;
735;SDS011;352;48.626;9.238;2023-02-23T00:43:00;18.58;;;10.40;;
735;SDS011;352;48.626;9.238;2023-02-23T00:45:26;15.68;;;12.70;;
735;SDS011;352;48.626;9.238;2023-02-23T00:47:54;23.23;;;14.75;;
735;SDS011;352;48.626;9.238;2023-02-23T00:50:22;11.75;;;10.18;;
735;SDS011;352;48.626;9.238;2023-02-23T00:52:49;12.73;;;9.48;;
735;SDS011;352;48.626;9.238;2023-02-23T00:55:16;11.90;;;9.25;;
735;SDS011;352;48.626;9.238;2023-02-23T00:57:42;10.68;;;9.55;;
735;SDS011;352;48.626;9.238;2023-02-23T01:00:10;9.53;;;8.63;;
735;SDS011;352;48.626;9.238;2023-02-23T01:02:44;10.17;;;9.10;;
735;SDS011;352;48.626;9.238;2023-02-23T01:05:11;10.20;;;9.10;;
735;SDS011;352;48.626;9.238;2023-02-23T01:07:39;13.13;;;10.02;;
735;SDS011;352;48.626;9.238;2023-02-23T01:10:06;12.68;;;9.95;;
735;SDS011;352;48.626;9.238;2023-02-23T01:12:43;12.10;;;10.90;;
735;SDS011;352;48.626;9.238;2023-02-23T01:15:14;14.10;;;10.60;;
735;SDS011;352;48.626;9.238;2023-02-23T01:17:41;11.90;;;10.20;;
735;SDS011;352;48.626;9.238;2023-02-23T01:20:09;12.13;;;10.55;;
735;SDS011;352;48.626;9.238;2023-02-23T01:22:43;12.25;;;11.00;;
735;SDS011;352;48.626;9.238;2023-02-23T01:25:11;15.40;;;11.00;;
735;SDS011;352;48.626;9.238;2023-02-23T01:27:38;15.45;;;11.98;;
735;SDS011;352;48.626;9.238;2023-02-23T01:30:06;12.80;;;10.40;;
735;SDS011;352;48.626;9.238;2023-02-23T01:32:34;13.90;;;10.80;;
735;SDS011;352;48.626;9.238;2023-02-23T01:35:02;14.50;;;11.00;;
735;SDS011;352;48.626;9.238;2023-02-23T01:37:30;14.15;;;10.90;;
735;SDS011;352;48.626;9.238;2023-02-23T01:40:01;13.85;;;12.00;;
735;SDS011;352;48.626;9.238;2023-02-23T01:42:35;17.65;;;12.93;;
735;SDS011;352;48.626;9.238;2023-02-23T01:47:56;11.13;;;10.02;;
735;SDS011;352;48.626;9.238;2023-02-23T01:50:28;12.18;;;10.63;;
735;SDS011;352;48.626;9.238;2023-02-23T01:52:58;13.90;;;11.98;;
735;SDS011;352;48.626;9.238;2023-02-23T01:55:27;12.73;;;11.23;;
735;SDS011;352;48.626;9.238;2023-02-23T01:57:56;16.52;;;12.88;;
735;SDS011;352;48.626;9.238;2023-02-23T02:00:28;15.90;;;13.18;;
735;SDS011;352;48.626;9.238;2023-02-23T02:03:00;16.50;;;13.90;;
735;SDS011;352;48.626;9.238;2023-02-23T02:05:32;21.73;;;15.00;;
735;SDS011;352;48.626;9.238;2023-02-23T02:08:01;20.67;;;14.88;;
735;SDS011;352;48.626;9.238;2023-02-23T02:10:31;19.33;;;13.52;;
735;SDS011;352;48.626;9.238;2023-02-23T02:13:13;18.63;;;15.07;;
735;SDS011;352;48.626;9.238;2023-02-23T02:15:48;18.77;;;15.15;;
735;SDS011;352;48.626;9.238;2023-02-23T02:18:34;18.15;;;13.00;;
735;SDS011;352;48.626;9.238;2023-02-23T02:24:17;12.05;;;10.60;;
735;SDS011;352;48.626;9.238;2023-02-23T02:27:16;14.55;;;9.80;;
735;SDS011;352;48.626;9.238;2023-02-23T02:29:59;11.75;;;10.55;;
735;SDS011;352;48.626;9.238;2023-02-23T02:32:58;12.50;;;10.63;;
735;SDS011;352;48.626;9.238;2023-02-23T02:36:14;11.93;;;9.88;;
735;SDS011;352;48.626;9.238;2023-02-23T02:38:58;11.43;;;9.70;;
735;SDS011;352;48.626;9.238;2023-02-23T02:41:35;9.80;;;8.98;;
735;SDS011;352;48.626;9.238;2023-02-23T02:44:16;10.35;;;9.35;;
735;SDS011;352;48.626;9.238;2023-02-23T02:46:46;11.80;;;10.40;;
735;SDS011;352;48.626;9.238;2023-02-23T02:49:19;11.90;;;9.48;;
735;SDS011;352;48.626;9.238;2023-02-23T02:51:52;11.15;;;9.00;;
735;SDS011;352;48.626;9.238;2023-02-23T02:54:25;18.05;;;11.05;;
735;SDS011;352;48.626;9.238;2023-02-23T02:56:57;13.85;;;10.38;;
735;SDS011;352;48.626;9.238;2023-02-23T02:59:26;17.45;;;10.73;;
735;SDS011;352;48.626;9.238;2023-02-23T03:02:12;17.17;;;11.75;;
735;SDS011;352;48.626;9.238;2023-02-23T03:04:58;12.07;;;10.27;;
735;SDS011;352;48.626;9.238;2023-02-23T03:07:44;13.43;;;10.60;;
735;SDS011;352;48.626;9.238;2023-02-23T03:10:40;15.10;;;9.82;;
735;SDS011;352;48.626;9.238;2023-02-23T03:13:31;10.93;;;9.82;;
735;SDS011;352;48.626;9.238;2023-02-23T03:16:30;13.38;;;11.13;;
735;SDS011;352;48.626;9.238;2023-02-23T03:19:20;14.93;;;11.88;;
735;SDS011;352;48.626;9.238;2023-02-23T03:22:12;18.05;;;13.65;;
735;SDS011;352;48.626;9.238;2023-02-23T03:25:05;22.00;;;16.75;;
735;SDS011;352;48.626;9.238;2023-02-23T03:28:00;21.40;;;16.70;;
735;SDS011;352;48.626;9.238;2023-02-23T03:30:53;24.27;;;15.65;;
735;SDS011;352;48.626;9.238;2023-02-23T03:33:45;21.45;;;16.48;;
735;SDS011;352;48.626;9.238;2023-02-23T03:36:36;21.77;;;17.00;;
735;SDS011;352;48.626;9.238;2023-02-23T03:39:27;24.17;;;19.30;;
735;SDS011;352;48.626;9.238;2023-02-23T03:42:16;24.70;;;17.60;;
735;SDS011;352;48.626;9.238;2023-02-23T03:45:06;19.48;;;16.63;;
735;SDS011;352;48.626;9.238;2023-02-23T03:47:53;17.45;;;13.85;;
735;SDS011;352;48.626;9.238;2023-02-23T03:50:40;19.70;;;14.90;;
735;SDS011;352;48.626;9.238;2023-02-23T03:53:31;17.30;;;14.32;;
735;SDS011;352;48.626;9.238;2023-02-23T03:56:23;22.85;;;17.60;;
735;SDS011;352;48.626;9.238;2023-02-23T03:59:10;23.70;;;18.80;;
735;SDS011;352;48.626;9.238;2023-02-23T04:01:59;22.30;;;16.38;;
735;SDS011;352;48.626;9.238;2023-02-23T04:04:45;24.75;;;17.75;;
735;SDS011;352;48.626;9.238;2023-02-23T04:07:30;25.55;;;17.98;;
735;SDS011;352;48.626;9.238;2023-02-23T04:10:17;27.65;;;19.63;;
735;SDS011;352;48.626;9.238;2023-02-23T04:13:03;20.85;;;18.65;;
735;SDS011;352;48.626;9.238;2023-02-23T04:15:40;21.98;;;17.15;;
735;SDS011;352;48.626;9.238;2023-02-23T04:18:13;20.40;;;16.98;;
735;SDS011;352;48.626;9.238;2023-02-23T04:20:41;25.52;;;16.00;;
735;SDS011;352;48.626;9.238;2023-02-23T04:23:08;16.20;;;12.23;;
735;SDS011;352;48.626;9.238;2023-02-23T04:25:35;15.40;;;12.73;;
735;SDS011;352;48.626;9.238;2023-02-23T04:28:02;14.23;;;12.60;;
735;SDS011;352;48.626;9.238;2023-02-23T04:30:28;15.45;;;13.85;;
735;SDS011;352;48.626;9.238;2023-02-23T04:32:55;19.73;;;16.23;;
735;SDS011;352;48.626;9.238;2023-02-23T04:35:24;25.38;;;17.23;;
735;SDS011;352;48.626;9.238;2023-02-23T04:37:52;22.13;;;18.75;;
735;SDS011;352;48.626;9.238;2023-02-23T04:40:19;23.30;;;18.02;;
735;SDS011;352;48.626;9.238;2023-02-23T04:42:46;14.85;;;12.90;;
735;SDS011;352;48.626;9.238;2023-02-23T04:45:13;14.70;;;13.17;;
735;SDS011;352;48.626;9.238;2023-02-23T04:47:40;13.18;;;11.77;;
735;SDS011;352;48.626;9.238;2023-02-23T04:50:09;14.95;;;12.80;;
735;SDS011;352;48.626;9.238;2023-02-23T04:52:38;14.95;;;12.60;;
735;SDS011;352;48.626;9.238;2023-02-23T04:55:05;15.53;;;13.27;;
735;SDS011;352;48.626;9.238;2023-02-23T04:57:33;15.07;;;13.07;;
735;SDS011;352;48.626;9.238;2023-02-23T05:00:00;20.83;;;14.32;;
735;SDS011;352;48.626;9.238;2023-02-23T05:02:28;15.90;;;14.30;;
735;SDS011;352;48.626;9.238;2023-02-23T05:04:55;15.95;;;14.27;;
735;SDS011;352;48.626;9.238;2023-02-23T05:07:21;17.80;;;14.90;;
735;SDS011;352;48.626;9.238;2023-02-23T05:09:49;16.92;;;15.18;;
735;SDS011;352;48.626;9.238;2023-02-23T05:12:16;18.20;;;14.88;;
735;SDS011;352;48.626;9.238;2023-02-23T05:14:43;16.98;;;15.25;;
735;SDS011;352;48.626;9.238;2023-02-23T05:17:09;19.10;;;16.42;;
735;SDS011;352;48.626;9.238;2023-02-23T05:19:36;21.77;;;17.85;;
735;SDS011;352;48.626;9.238;2023-02-23T05:22:03;25.58;;;19.05;;
735;SDS011;352;48.626;9.238;2023-02-23T05:24:29;22.20;;;19.80;;
735;SDS011;352;48.626;9.238;2023-02-23T05:26:58;22.65;;;19.90;;
735;SDS011;352;48.626;9.238;2023-02-23T05:29:24;24.08;;;20.92;;
735;SDS011;352;48.626;9.238;2023-02-23T05:31:51;22.33;;;19.85;;
735;SDS011;352;48.626;9.238;2023-02-23T05:34:18;23.40;;;19.67;;
735;SDS011;352;48.626;9.238;2023-02-23T05:36:44;24.90;;;19.30;;
735;SDS011;352;48.626;9.238;2023-02-23T05:39:11;20.70;;;18.02;;
735;SDS011;352;48.626;9.238;2023-02-23T05:41:38;26.85;;;19.02;;
735;SDS011;352;48.626;9.238;2023-02-23T05:44:06;24.58;;;18.95;;
735;SDS011;352;48.626;9.238;2023-02-23T05:46:33;23.63;;;19.90;;
735;SDS011;352;48.626;9.238;2023-02-23T05:49:00;22.95;;;18.08;;
735;SDS011;352;48.626;9.238;2023-02-23T05:51:28;21.13;;;18.65;;
735;SDS011;352;48.626;9.238;2023-02-23T05:53:56;21.20;;;18.33;;
735;SDS011;352;48.626;9.238;2023-02-23T05:56:23;22.52;;;18.40;;
735;SDS011;352;48.626;9.238;2023-02-23T05:58:51;23.90;;;20.07;;
735;SDS011;352;48.626;9.238;2023-02-23T06:01:20;25.92;;;19.42;;
735;SDS011;352;48.626;9.238;2023-02-23T06:03:48;25.45;;;18.80;;
735;SDS011;352;48.626;9.238;2023-02-23T06:06:15;26.38;;;20.25;;
735;SDS011;352;48.626;9.238;2023-02-23T06:08:42;23.07;;;18.83;;
735;SDS011;352;48.626;9.238;2023-02-23T06:11:09;18.67;;;16.70;;
735;SDS011;352;48.626;9.238;2023-02-23T06:13:37;19.60;;;17.50;;
735;SDS011;352;48.626;9.238;2023-02-23T06:16:04;20.00;;;17.83;;
735;SDS011;352;48.626;9.238;2023-02-23T06:18:33;22.98;;;19.73;;
735;SDS011;352;48.626;9.238;2023-02-23T06:21:00;19.83;;;17.73;;
735;SDS011;352;48.626;9.238;2023-02-23T06:23:28;20.45;;;18.35;;
735;SDS011;352;48.626;9.238;2023-02-23T06:25:55;21.80;;;18.33;;
735;SDS011;352;48.626;9.238;2023-02-23T06:28:23;19.45;;;17.27;;
735;SDS011;352;48.626;9.238;2023-02-23T06:30:51;18.40;;;16.30;;
735;SDS011;352;48.626;9.238;2023-02-23T06:33:19;21.05;;;18.75;;
735;SDS011;352;48.626;9.238;2023-02-23T06:35:48;22.20;;;19.83;;
735;SDS011;352;48.626;9.238;2023-02-23T06:38:15;20.42;;;18.15;;
735;SDS011;352;48.626;9.238;2023-02-23T06:40:42;22.63;;;18.77;;
735;SDS011;352;48.626;9.238;2023-02-23T06:43:09;24.85;;;19.17;;
735;SDS011;352;48.626;9.238;2023-02-23T06:45:36;22.07;;;19.00;;
735;SDS011;352;48.626;9.238;2023-02-23T06:48:03;20.48;;;16.95;;
735;SDS011;352;48.626;9.238;2023-02-23T06:50:30;16.33;;;14.70;;
735;SDS011;352;48.626;9.238;2023-02-23T06:52:59;18.65;;;14.45;;
735;SDS011;352;48.626;9.238;2023-02-23T06:55:26;17.33;;;15.40;;
735;SDS011;352;48.626;9.238;2023-02-23T06:57:52;17.48;;;15.25;;
735;SDS011;352;48.626;9.238;2023-02-23T07:00:19;17.25;;;15.45;;
735;SDS011;352;48.626;9.238;2023-02-23T07:02:47;18.02;;;16.17;;
735;SDS011;352;48.626;9.238;2023-02-23T07:05:13;19.20;;;17.30;;
735;SDS011;352;48.626;9.238;2023-02-23T07:07:40;20.52;;;17.50;;
735;SDS011;352;48.626;9.238;2023-02-23T07:10:09;19.27;;;16.45;;
735;SDS011;352;48.626;9.238;2023-02-23T07:12:36;21.03;;;17.30;;
735;SDS011;352;48.626;9.238;2023-02-23T07:15:03;25.40;;;18.13;;
735;SDS011;352;48.626;9.238;2023-02-23T07:17:31;19.52;;;16.55;;
735;SDS011;352;48.626;9.238;2023-02-23T07:19:57;20.00;;;17.63;;
735;SDS011;352;48.626;9.238;2023-02-23T07:22:24;21.83;;;19.52;;
735;SDS011;352;48.626;9.238;2023-02-23T07:24:54;20.40;;;17.30;;
735;SDS011;352;48.626;9.238;2023-02-23T07:27:22;27.90;;;22.30;;
735;SDS011;352;48.626;9.238;2023-02-23T07:29:49;30.37;;;23.33;;
735;SDS011;352;48.626;9.238;2023-02-23T07:32:15;20.77;;;18.67;;
735;SDS011;352;48.626;9.238;2023-02-23T07:34:42;22.63;;;17.70;;
735;SDS011;352;48.626;9.238;2023-02-23T07:37:09;21.88;;;16.75;;
735;SDS011;352;48.626;9.238;2023-02-23T07:39:36;21.42;;;15.98;;
735;SDS011;352;48.626;9.238;2023-02-23T07:42:03;23.02;;;16.30;;
735;SDS011;352;48.626;9.238;2023-02-23T07:44:31;23.13;;;16.27;;
735;SDS011;352;48.626;9.238;2023-02-23T07:46:57;31.00;;;16.60;;
735;SDS011;352;48.626;9.238;2023-02-23T07:49:24;22.50;;;17.00;;
735;SDS011;352;48.626;9.238;2023-02-23T07:51:51;19.03;;;16.90;;
735;SDS011;352;48.626;9.238;2023-02-23T07:54:18;20.80;;;16.43;;
735;SDS011;352;48.626;9.238;2023-02-23T07:56:45;28.23;;;19.13;;
735;SDS011;352;48.626;9.238;2023-02-23T07:59:12;20.67;;;18.30;;
735;SDS011;352;48.626;9.238;2023-02-23T08:01:40;21.40;;;16.80;;
735;SDS011;352;48.626;9.238;2023-02-23T08:04:07;22.60;;;16.73;;
735;SDS011;352;48.626;9.238;2023-02-23T08:06:34;19.87;;;16.47;;
735;SDS011;352;48.626;9.238;2023-02-23T08:09:01;24.67;;;16.55;;
735;SDS011;352;48.626;9.238;2023-02-23T08:11:29;21.17;;;18.20;;
735;SDS011;352;48.626;9.238;2023-02-23T08:13:56;18.87;;;16.50;;
735;SDS011;352;48.626;9.238;2023-02-23T08:16:24;18.33;;;15.67;;
735;SDS011;352;48.626;9.238;2023-02-23T08:18:52;16.80;;;15.03;;
735;SDS011;352;48.626;9.238;2023-02-23T08:21:19;19.20;;;16.00;;
735;SDS011;352;48.626;9.238;2023-02-23T08:23:46;17.90;;;15.47;;
735;SDS011;352;48.626;9.238;2023-02-23T08:26:12;20.60;;;17.27;;
735;SDS011;352;48.626;9.238;2023-02-23T08:28:39;21.33;;;16.40;;
735;SDS011;352;48.626;9.238;2023-02-23T08:31:09;17.50;;;15.37;;
735;SDS011;352;48.626;9.238;2023-02-23T08:33:36;16.43;;;14.73;;
735;SDS011;352;48.626;9.238;2023-02-23T08:36:05;14.17;;;12.53;;
735;SDS011;352;48.626;9.238;2023-02-23T08:38:33;15.57;;;14.07;;
735;SDS011;352;48.626;9.238;2023-02-23T08:41:01;15.17;;;13.60;;
735;SDS011;352;48.626;9.238;2023-02-23T08:43:28;15.13;;;13.63;;
735;SDS011;352;48.626;9.238;2023-02-23T08:45:55;15.37;;;13.07;;
735;SDS011;352;48.626;9.238;2023-02-23T08:48:22;16.23;;;14.67;;
735;SDS011;352;48.626;9.238;2023-02-23T08:50:50;18.40;;;16.40;;
735;SDS011;352;48.626;9.238;2023-02-23T08:53:22;18.20;;;16.40;;
735;SDS011;352;48.626;9.238;2023-02-23T08:55:53;16.50;;;14.63;;
735;SDS011;352;48.626;9.238;2023-02-23T08:58:20;20.67;;;17.57;;
735;SDS011;352;48.626;9.238;2023-02-23T09:00:47;22.03;;;17.17;;
735;SDS011;352;48.626;9.238;2023-02-23T09:03:14;19.93;;;17.57;;
735;SDS011;352;48.626;9.238;2023-02-23T09:05:41;18.20;;;16.40;;
735;SDS011;352;48.626;9.238;2023-02-23T09:08:08;15.73;;;14.13;;
735;SDS011;352;48.626;9.238;2023-02-23T09:10:37;15.57;;;12.67;;
735;SDS011;352;48.626;9.238;2023-02-23T09:13:04;13.90;;;12.00;;
735;SDS011;352;48.626;9.238;2023-02-23T09:15:32;12.77;;;11.47;;
735;SDS011;352;48.626;9.238;2023-02-23T09:17:59;12.40;;;11.30;;
735;SDS011;352;48.626;9.238;2023-02-23T09:20:26;16.20;;;14.53;;
735;SDS011;352;48.626;9.238;2023-02-23T09:22:54;15.97;;;14.57;;
735;SDS011;352;48.626;9.238;2023-02-23T09:25:21;14.53;;;11.50;;
735;SDS011;352;48.626;9.238;2023-02-23T09:27:50;14.27;;;12.87;;
735;SDS011;352;48.626;9.238;2023-02-23T09:30:20;15.40;;;13.90;;
735;SDS011;352;48.626;9.238;2023-02-23T09:32:47;14.93;;;13.53;;
735;SDS011;352;48.626;9.238;2023-02-23T09:35:15;13.60;;;11.83;;
735;SDS011;352;48.626;9.238;2023-02-23T09:37:42;11.30;;;10.27;;
735;SDS011;352;48.626;9.238;2023-02-23T09:40:13;14.47;;;12.90;;
735;SDS011;352;48.626;9.238;2023-02-23T09:42:42;11.03;;;9.80;;
735;SDS011;352;48.626;9.238;2023-02-23T09:45:18;12.40;;;11.10;;
735;SDS011;352;48.626;9.238;2023-02-23T09:47:54;12.57;;;11.37;;
735;SDS011;352;48.626;9.238;2023-02-23T09:50:32;13.33;;;11.10;;
735;SDS011;352;48.626;9.238;2023-02-23T09:53:02;9.83;;;8.80;;
735;SDS011;352;48.626;9.238;2023-02-23T09:55:32;12.67;;;9.60;;
735;SDS011;352;48.626;9.238;2023-02-23T09:58:01;9.70;;;8.80;;
735;SDS011;352;48.626;9.238;2023-02-23T10:00:34;8.93;;;8.07;;
735;SDS011;352;48.626;9.238;2023-02-23T10:03:15;9.60;;;8.30;;
735;SDS011;352;48.626;9.238;2023-02-23T10:05:45;9.20;;;8.40;;
735;SDS011;352;48.626;9.238;2023-02-23T10:08:19;8.80;;;8.10;;
735;SDS011;352;48.626;9.238;2023-02-23T10:10:53;7.90;;;7.10;;
735;SDS011;352;48.626;9.238;2023-02-23T10:13:27;8.20;;;7.03;;
735;SDS011;352;48.626;9.238;2023-02-23T10:16:06;7.10;;;6.47;;
735;SDS011;352;48.626;9.238;2023-02-23T10:18:44;6.60;;;5.87;;
735;SDS011;352;48.626;9.238;2023-02-23T10:21:19;7.40;;;6.50;;
735;SDS011;352;48.626;9.238;2023-02-23T10:23:56;6.80;;;5.83;;
735;SDS011;352;48.626;9.238;2023-02-23T10:26:25;7.30;;;5.27;;
735;SDS011;352;48.626;9.238;2023-02-23T10:28:56;6.77;;;5.70;;
735;SDS011;352;48.626;9.238;2023-02-23T10:31:27;6.50;;;5.07;;
735;SDS011;352;48.626;9.238;2023-02-23T10:33:59;7.17;;;6.53;;
735;SDS011;352;48.626;9.238;2023-02-23T10:36:35;7.30;;;5.70;;
735;SDS011;352;48.626;9.238;2023-02-23T10:39:04;9.37;;;5.53;;
735;SDS011;352;48.626;9.238;2023-02-23T10:41:34;6.87;;;5.43;;
735;SDS011;352;48.626;9.238;2023-02-23T10:44:02;6.20;;;5.60;;
735;SDS011;352;48.626;9.238;2023-02-23T10:46:35;5.03;;;4.53;;
735;SDS011;352;48.626;9.238;2023-02-23T10:49:05;8.67;;;5.20;;
735;SDS011;352;48.626;9.238;2023-02-23T10:51:37;8.10;;;4.83;;
735;SDS011;352;48.626;9.238;2023-02-23T10:57:10;5.67;;;4.27;;
735;SDS011;352;48.626;9.238;2023-02-23T11:02:58;7.00;;;4.40;;
735;SDS011;352;48.626;9.238;2023-02-23T11:05:29;8.03;;;4.43;;
735;SDS011;352;48.626;9.238;2023-02-23T11:08:08;9.27;;;4.67;;
735;SDS011;352;48.626;9.238;2023-02-23T11:10:36;6.37;;;4.23;;
735;SDS011;352;48.626;9.238;2023-02-23T11:13:03;9.00;;;4.50;;
735;SDS011;352;48.626;9.238;2023-02-23T11:15:31;5.50;;;4.20;;
735;SDS011;352;48.626;9.238;2023-02-23T11:18:02;4.60;;;4.17;;
735;SDS011;352;48.626;9.238;2023-02-23T11:20:30;3.93;;;3.63;;
735;SDS011;352;48.626;9.238;2023-02-23T11:23:00;8.73;;;4.40;;
735;SDS011;352;48.626;9.238;2023-02-23T11:25:33;7.00;;;4.60;;
735;SDS011;352;48.626;9.238;2023-02-23T11:28:02;7.53;;;4.90;;
735;SDS011;352;48.626;9.238;2023-02-23T11:30:33;5.10;;;4.60;;
735;SDS011;352;48.626;9.238;2023-02-23T11:33:12;7.47;;;4.00;;
735;SDS011;352;48.626;9.238;2023-02-23T11:35:43;8.37;;;5.40;;
735;SDS011;352;48.626;9.238;2023-02-23T11:38:15;5.70;;;4.80;;
735;SDS011;352;48.626;9.238;2023-02-23T11:40:56;7.50;;;4.47;;
735;SDS011;352;48.626;9.238;2023-02-23T11:43:26;7.33;;;5.80;;
735;SDS011;352;48.626;9.238;2023-02-23T11:45:54;5.43;;;4.93;;
735;SDS011;352;48.626;9.238;2023-02-23T11:48:24;5.50;;;4.23;;
735;SDS011;352;48.626;9.238;2023-02-23T11:50:53;5.80;;;5.10;;
735;SDS011;352;48.626;9.238;2023-02-23T11:53:24;11.00;;;6.10;;
735;SDS011;352;48.626;9.238;2023-02-23T11:55:57;7.13;;;5.77;;
735;SDS011;352;48.626;9.238;2023-02-23T11:58:33;6.50;;;5.23;;
735;SDS011;352;48.626;9.238;2023-02-23T12:01:03;5.40;;;4.90;;
735;SDS011;352;48.626;9.238;2023-02-23T12:03:37;7.80;;;5.20;;
735;SDS011;352;48.626;9.238;2023-02-23T12:06:14;7.10;;;6.27;;
735;SDS011;352;48.626;9.238;2023-02-23T12:08:53;6.83;;;4.87;;
735;SDS011;352;48.626;9.238;2023-02-23T12:11:27;5.87;;;5.30;;
735;SDS011;352;48.626;9.238;2023-02-23T12:13:59;5.23;;;4.83;;
735;SDS011;352;48.626;9.238;2023-02-23T12:16:32;5.90;;;5.40;;
735;SDS011;352;48.626;9.238;2023-02-23T12:19:05;6.07;;;5.57;;
735;SDS011;352;48.626;9.238;2023-02-23T12:21:47;6.00;;;5.37;;
735;SDS011;352;48.626;9.238;2023-02-23T12:24:18;5.80;;;4.70;;
735;SDS011;352;48.626;9.238;2023-02-23T12:26:54;8.80;;;4.80;;
735;SDS011;352;48.626;9.238;2023-02-23T12:29:26;6.20;;;5.10;;
735;SDS011;352;48.626;9.238;2023-02-23T12:31:58;5.60;;;4.63;;
735;SDS011;352;48.626;9.238;2023-02-23T12:34:31;4.90;;;4.50;;
735;SDS011;352;48.626;9.238;2023-02-23T12:37:08;7.00;;;5.27;;
735;SDS011;352;48.626;9.238;2023-02-23T12:39:44;8.30;;;5.43;;
735;SDS011;352;48.626;9.238;2023-02-23T12:42:15;7.53;;;4.80;;
735;SDS011;352;48.626;9.238;2023-02-23T12:44:48;10.53;;;5.60;;
735;SDS011;352;48.626;9.238;2023-02-23T12:47:20;7.97;;;5.73;;
735;SDS011;352;48.626;9.238;2023-02-23T12:49:54;6.10;;;4.77;;
735;SDS011;352;48.626;9.238;2023-02-23T12:52:32;6.50;;;4.03;;
735;SDS011;352;48.626;9.238;2023-02-23T12:55:03;7.23;;;4.60;;
735;SDS011;352;48.626;9.238;2023-02-23T12:57:36;4.33;;;3.93;;
735;SDS011;352;48.626;9.238;2023-02-23T13:00:24;5.73;;;4.70;;
735;SDS011;352;48.626;9.238;2023-02-23T13:06:01;5.87;;;4.70;;
735;SDS011;352;48.626;9.238;2023-02-23T13:08:38;5.63;;;4.50;;
735;SDS011;352;48.626;9.238;2023-02-23T13:11:19;32.60;;;23.37;;
735;SDS011;352;48.626;9.238;2023-02-23T13:13:54;26.03;;;18.40;;
735;SDS011;352;48.626;9.238;2023-02-23T13:16:26;32.20;;;23.57;;
735;SDS011;352;48.626;9.238;2023-02-23T13:19:01;13.37;;;9.63;;
735;SDS011;352;48.626;9.238;2023-02-23T13:21:41;6.50;;;5.90;;
735;SDS011;352;48.626;9.238;2023-02-23T13:24:13;6.63;;;5.30;;
735;SDS011;352;48.626;9.238;2023-02-23T13:26:45;6.77;;;5.80;;
735;SDS011;352;48.626;9.238;2023-02-23T13:29:20;8.50;;;6.30;;
735;SDS011;352;48.626;9.238;2023-02-23T13:31:55;10.37;;;6.43;;
735;SDS011;352;48.626;9.238;2023-02-23T13:34:25;7.77;;;6.03;;
735;SDS011;352;48.626;9.238;2023-02-23T13:36:55;8.83;;;6.37;;
735;SDS011;352;48.626;9.238;2023-02-23T13:42:25;17.87;;;7.00;;
735;SDS011;352;48.626;9.238;2023-02-23T13:45:09;8.00;;;6.23;;
735;SDS011;352;48.626;9.238;2023-02-23T13:47:52;8.13;;;6.37;;
735;SDS011;352;48.626;9.238;2023-02-23T13:50:22;7.00;;;5.80;;
735;SDS011;352;48.626;9.238;2023-02-23T13:52:59;15.43;;;13.67;;
735;SDS011;352;48.626;9.238;2023-02-23T13:55:36;8.60;;;7.80;;
735;SDS011;352;48.626;9.238;2023-02-23T13:58:14;12.80;;;9.50;;
735;SDS011;352;48.626;9.238;2023-02-23T14:00:43;8.47;;;7.67;;
735;SDS011;352;48.626;9.238;2023-02-23T14:03:22;6.50;;;5.90;;
735;SDS011;352;48.626;9.238;2023-02-23T14:05:53;6.60;;;5.53;;
735;SDS011;352;48.626;9.238;2023-02-23T14:08:27;5.77;;;5.17;;
735;SDS011;352;48.626;9.238;2023-02-23T14:10:58;6.20;;;5.50;;
735;SDS011;352;48.626;9.238;2023-02-23T14:13:27;6.00;;;5.53;;
735;SDS011;352;48.626;9.238;2023-02-23T14:16:10;6.80;;;5.00;;
735;SDS011;352;48.626;9.238;2023-02-23T14:21:40;5.30;;;4.67;;
735;SDS011;352;48.626;9.238;2023-02-23T14:24:16;4.33;;;3.93;;
735;SDS011;352;48.626;9.238;2023-02-23T14:30:13;5.13;;;4.67;;
735;SDS011;352;48.626;9.238;2023-02-23T14:32:45;8.60;;;5.10;;
735;SDS011;352;48.626;9.238;2023-02-23T14:38:04;7.80;;;5.23;;
735;SDS011;352;48.626;9.238;2023-02-23T14:40:39;6.40;;;5.53;;
735;SDS011;352;48.626;9.238;2023-02-23T14:46:08;8.00;;;5.90;;
735;SDS011;352;48.626;9.238;2023-02-23T14:48:38;6.60;;;5.70;;
735;SDS011;352;48.626;9.238;2023-02-23T14:51:10;7.33;;;6.17;;
735;SDS011;352;48.626;9.238;2023-02-23T14:53:42;8.40;;;6.43;;
735;SDS011;352;48.626;9.238;2023-02-23T14:56:17;7.67;;;6.97;;
735;SDS011;352;48.626;9.238;2023-02-23T14:58:48;10.83;;;7.27;;
735;SDS011;352;48.626;9.238;2023-02-23T15:01:30;9.77;;;6.60;;
735;SDS011;352;48.626;9.238;2023-02-23T15:04:05;11.37;;;7.10;;
735;SDS011;352;48.626;9.238;2023-02-23T15:06:33;8.97;;;6.53;;
735;SDS011;352;48.626;9.238;2023-02-23T15:09:00;8.80;;;5.97;;
735;SDS011;352;48.626;9.238;2023-02-23T15:11:30;9.67;;;7.30;;
735;SDS011;352;48.626;9.238;2023-02-23T15:13:57;7.67;;;6.87;;
735;SDS011;352;48.626;9.238;2023-02-23T15:16:26;7.20;;;6.00;;
735;SDS011;352;48.626;9.238;2023-02-23T15:21:58;16.00;;;6.53;;
735;SDS011;352;48.626;9.238;2023-02-23T15:24:27;20.63;;;7.07;;
735;SDS011;352;48.626;9.238;2023-02-23T15:26:59;8.63;;;7.83;;
735;SDS011;352;48.626;9.238;2023-02-23T15:29:30;9.77;;;8.70;;
735;SDS011;352;48.626;9.238;2023-02-23T15:32:09;11.77;;;9.10;;
735;SDS011;352;48.626;9.238;2023-02-23T15:34:39;9.60;;;8.60;;
735;SDS011;352;48.626;9.238;2023-02-23T15:37:06;12.43;;;9.70;;
735;SDS011;352;48.626;9.238;2023-02-23T15:39:38;12.40;;;7.73;;
735;SDS011;352;48.626;9.238;2023-02-23T15:42:13;10.53;;;9.10;;
735;SDS011;352;48.626;9.238;2023-02-23T15:44:43;11.87;;;9.10;;
735;SDS011;352;48.626;9.238;2023-02-23T15:47:12;12.17;;;9.30;;
735;SDS011;352;48.626;9.238;2023-02-23T15:49:43;10.30;;;7.73;;
735;SDS011;352;48.626;9.238;2023-02-23T15:52:13;12.43;;;8.57;;
735;SDS011;352;48.626;9.238;2023-02-23T15:54:44;8.77;;;7.87;;
735;SDS011;352;48.626;9.238;2023-02-23T15:57:18;9.07;;;8.17;;
735;SDS011;352;48.626;9.238;2023-02-23T15:59:48;13.03;;;7.63;;
735;SDS011;352;48.626;9.238;2023-02-23T16:02:15;16.07;;;8.17;;
735;SDS011;352;48.626;9.238;2023-02-23T16:04:44;8.80;;;7.27;;
735;SDS011;352;48.626;9.238;2023-02-23T16:07:15;11.67;;;8.00;;
735;SDS011;352;48.626;9.238;2023-02-23T16:09:47;11.07;;;6.87;;
735;SDS011;352;48.626;9.238;2023-02-23T16:12:18;9.03;;;8.13;;
735;SDS011;352;48.626;9.238;2023-02-23T16:14:48;9.43;;;7.47;;
735;SDS011;352;48.626;9.238;2023-02-23T16:17:19;10.70;;;7.20;;
735;SDS011;352;48.626;9.238;2023-02-23T16:19:50;11.60;;;7.20;;
735;SDS011;352;48.626;9.238;2023-02-23T16:22:19;9.73;;;6.03;;
735;SDS011;352;48.626;9.238;2023-02-23T16:24:51;13.67;;;6.00;;
735;SDS011;352;48.626;9.238;2023-02-23T16:27:24;9.20;;;5.33;;
735;SDS011;352;48.626;9.238;2023-02-23T16:29:54;7.33;;;5.57;;